Time;durP1;ratioP1;P1;durP2;ratioP2;P2;SDS_P1;SDS_P2;PMS_P1;PMS_P2;Temp;Humidity;BMP_temperature;BMP_pressure;BME280_temperature;BME280_humidity;BME280_pressure;Samples;Min_cycle;Max_cycle;Signal;HPM_P1;HPM_P2
2022/11/25 00:01:04;;;;;;;16.48;3.70;;;8.10;99.90;;;;;;5028217;28;20329;-58
2022/11/25 00:03:29;;;;;;;21.83;4.72;;;8.10;99.90;;;;;;5022869;28;20041;-62
2022/11/25 00:05:55;;;;;;;17.55;3.60;;;8.10;99.90;;;;;;5055168;28;20039;-61
2022/11/25 00:08:21;;;;;;;20.05;3.45;;;8.10;99.90;;;;;;5044539;28;20215;-58
2022/11/25 00:10:46;;;;;;;15.40;3.70;;;8.10;99.90;;;;;;5047782;28;20638;-61
2022/11/25 00:13:12;;;;;;;20.60;4.70;;;8.20;99.90;;;;;;5032982;28;20036;-57
2022/11/25 00:15:38;;;;;;;14.65;3.60;;;8.20;99.90;;;;;;5030522;28;20033;-61
2022/11/25 00:18:03;;;;;;;15.48;3.47;;;8.20;99.90;;;;;;5041064;28;20503;-60
2022/11/25 00:20:29;;;;;;;26.63;4.47;;;8.20;99.90;;;;;;5048915;28;20071;-60
2022/11/25 00:22:55;;;;;;;13.25;3.67;;;8.20;99.90;;;;;;5027380;28;20498;-60
2022/11/25 00:25:20;;;;;;;24.00;4.65;;;8.20;99.90;;;;;;5040031;28;20045;-60
2022/11/25 00:27:46;;;;;;;18.27;4.05;;;8.30;99.90;;;;;;5044736;28;20045;-59
2022/11/25 00:30:12;;;;;;;17.73;3.88;;;8.20;99.90;;;;;;5045345;28;20044;-57
2022/11/25 00:32:38;;;;;;;12.38;3.30;;;8.20;99.90;;;;;;5036705;28;20045;-56
2022/11/25 00:35:04;;;;;;;14.65;3.53;;;8.30;99.90;;;;;;5034289;28;20044;-59
2022/11/25 00:37:31;;;;;;;14.38;3.60;;;8.20;99.90;;;;;;5037122;28;20041;-60
2022/11/25 00:39:57;;;;;;;16.15;3.67;;;8.30;99.90;;;;;;5039206;28;20037;-60
2022/11/25 00:45:07;;;;;;;18.08;4.47;;;8.30;99.90;;;;;;5037288;28;20120;-58
2022/11/25 00:47:32;;;;;;;16.80;3.55;;;8.30;99.90;;;;;;5036533;28;20036;-59
2022/11/25 00:49:58;;;;;;;14.88;3.50;;;8.20;99.90;;;;;;5044256;28;20047;-57
2022/11/25 00:52:26;;;;;;;16.90;4.15;;;8.30;99.90;;;;;;5045867;28;20486;-60
2022/11/25 00:54:52;;;;;;;12.27;3.20;;;8.30;99.90;;;;;;5023717;28;21203;-62
2022/11/25 00:57:20;;;;;;;16.00;3.67;;;8.30;99.90;;;;;;5037719;28;20037;-59
2022/11/25 00:59:46;;;;;;;14.82;4.40;;;8.30;99.90;;;;;;5034949;28;20072;-60
2022/11/25 01:02:13;;;;;;;17.88;3.17;;;8.30;99.90;;;;;;5042162;28;20073;-62
2022/11/25 01:04:39;;;;;;;12.45;3.10;;;8.30;99.90;;;;;;5035376;28;20728;-60
2022/11/25 01:07:05;;;;;;;16.20;4.70;;;8.30;99.90;;;;;;5043298;28;20219;-59
2022/11/25 01:09:31;;;;;;;14.38;3.20;;;8.30;99.90;;;;;;5042792;28;20140;-57
2022/11/25 01:11:57;;;;;;;17.70;4.18;;;8.30;99.90;;;;;;5041902;28;20059;-59
2022/11/25 01:14:24;;;;;;;24.70;4.60;;;8.30;99.90;;;;;;5021696;28;20204;-60
2022/11/25 01:16:50;;;;;;;19.17;3.95;;;8.30;99.90;;;;;;5042254;28;20068;-60
2022/11/25 01:19:17;;;;;;;19.88;4.18;;;8.40;99.90;;;;;;5019512;28;20140;-57
2022/11/25 01:21:43;;;;;;;18.48;3.92;;;8.40;99.90;;;;;;5043578;28;20041;-61
2022/11/25 01:24:10;;;;;;;19.55;3.47;;;8.40;99.90;;;;;;5042783;28;20048;-60
2022/11/25 01:26:36;;;;;;;19.13;4.15;;;8.40;99.90;;;;;;5040186;28;20048;-61
2022/11/25 01:29:11;;;;;;;12.00;3.53;;;8.40;99.90;;;;;;5042681;28;20056;-62
2022/11/25 01:31:36;;;;;;;15.23;4.15;;;8.40;99.90;;;;;;5042239;28;20075;-61
2022/11/25 01:34:10;;;;;;;18.95;4.15;;;8.40;99.90;;;;;;5034542;28;20403;-60
2022/11/25 01:36:35;;;;;;;16.08;3.67;;;8.40;99.90;;;;;;5034633;28;20079;-61
2022/11/25 01:39:01;;;;;;;15.98;3.78;;;8.40;99.90;;;;;;5040798;28;20450;-59
2022/11/25 01:41:29;;;;;;;16.45;4.03;;;8.40;99.90;;;;;;5030545;28;20043;-59
2022/11/25 01:44:15;;;;;;;15.20;3.55;;;8.40;99.90;;;;;;5033079;28;20051;-61
2022/11/25 01:46:49;;;;;;;15.35;3.38;;;8.30;99.90;;;;;;5030337;28;20048;-60
2022/11/25 01:49:38;;;;;;;19.05;4.22;;;8.30;99.90;;;;;;5039337;28;20196;-62
2022/11/25 01:52:14;;;;;;;19.83;5.35;;;8.30;99.90;;;;;;5025454;28;20106;-61
2022/11/25 01:54:48;;;;;;;19.65;4.35;;;8.30;99.90;;;;;;5035994;28;20045;-61
2022/11/25 01:57:16;;;;;;;;;;;8.30;99.90;;;;;;5022839;28;20045;-62
2022/11/25 01:59:51;;;;;;;16.48;4.07;;;8.30;99.90;;;;;;5037406;28;19983;-61
2022/11/25 02:02:17;;;;;;;20.05;4.40;;;8.30;99.90;;;;;;5036332;28;20111;-59
2022/11/25 02:04:45;;;;;;;16.80;3.70;;;8.30;99.90;;;;;;5036531;28;20120;-60
2022/11/25 02:07:26;;;;;;;22.95;3.97;;;8.30;99.90;;;;;;5038445;28;20045;-60
2022/11/25 02:09:52;;;;;;;11.98;3.88;;;8.30;99.90;;;;;;5036008;28;20120;-59
2022/11/25 02:12:20;;;;;;;15.85;3.65;;;8.20;99.90;;;;;;5040168;28;20255;-59
2022/11/25 02:14:49;;;;;;;16.63;4.00;;;8.30;99.90;;;;;;5041102;28;20041;-58
2022/11/25 02:17:15;;;;;;;16.15;4.03;;;8.30;99.90;;;;;;5036700;28;20484;-62
2022/11/25 02:19:55;;;;;;;22.17;4.65;;;8.30;99.90;;;;;;5040141;28;20498;-60
2022/11/25 02:22:29;;;;;;;19.95;4.35;;;8.30;99.90;;;;;;5037677;28;20116;-61
2022/11/25 02:25:01;;;;;;;14.18;3.80;;;8.30;99.90;;;;;;5037771;28;20041;-60
2022/11/25 02:27:27;;;;;;;27.48;4.68;;;8.20;99.90;;;;;;5036945;28;20049;-60
2022/11/25 02:29:53;;;;;;;17.10;4.30;;;8.30;99.90;;;;;;5041144;28;20047;-60
2022/11/25 02:32:22;;;;;;;17.33;3.83;;;8.20;99.90;;;;;;5016265;28;20048;-59
2022/11/25 02:34:49;;;;;;;21.58;4.95;;;8.30;99.90;;;;;;5038581;28;20043;-60
2022/11/25 02:37:17;;;;;;;17.02;3.90;;;8.30;99.90;;;;;;5025610;28;20452;-60
2022/11/25 02:39:45;;;;;;;17.15;4.10;;;8.20;99.90;;;;;;5037861;28;21140;-61
2022/11/25 02:42:11;;;;;;;16.17;4.15;;;8.20;99.90;;;;;;5028572;28;20049;-61
2022/11/25 02:44:37;;;;;;;23.38;4.68;;;8.30;99.90;;;;;;5034579;28;20032;-62
2022/11/25 02:47:02;;;;;;;21.50;5.07;;;8.20;99.90;;;;;;5034503;28;20055;-60
2022/11/25 02:49:28;;;;;;;15.05;4.03;;;8.20;99.90;;;;;;5036041;28;20080;-58
2022/11/25 02:51:54;;;;;;;19.27;3.67;;;8.20;99.90;;;;;;5042194;28;20076;-60
2022/11/25 02:54:19;;;;;;;19.92;4.72;;;8.20;99.90;;;;;;5022345;28;20067;-59
2022/11/25 02:56:45;;;;;;;16.05;4.20;;;8.20;99.90;;;;;;5036564;28;20033;-59
2022/11/25 02:59:11;;;;;;;21.50;5.13;;;8.30;99.90;;;;;;5036002;28;20283;-57
2022/11/25 03:01:37;;;;;;;14.57;4.50;;;8.20;99.90;;;;;;5036403;28;20541;-61
2022/11/25 03:04:03;;;;;;;20.63;5.32;;;8.30;99.90;;;;;;5035082;28;20033;-63
2022/11/25 03:06:30;;;;;;;19.65;4.68;;;8.30;99.90;;;;;;5040110;28;20035;-58
2022/11/25 03:08:56;;;;;;;28.52;5.20;;;8.30;99.90;;;;;;5034988;28;20037;-61
2022/11/25 03:12:17;;;;;;;22.50;4.88;;;8.40;99.90;;;;;;5022620;28;20240;-60
2022/11/25 03:14:11;;;;;;;14.10;4.53;;;8.40;99.90;;;;;;5036453;28;20462;-57
2022/11/25 03:16:37;;;;;;;16.15;5.72;;;8.40;99.90;;;;;;5037370;28;20044;-63
2022/11/25 03:19:03;;;;;;;17.05;4.60;;;8.30;99.90;;;;;;5033552;28;20063;-61
2022/11/25 03:21:28;;;;;;;19.23;5.00;;;8.40;99.90;;;;;;5036768;28;20189;-60
2022/11/25 03:23:54;;;;;;;21.70;5.30;;;8.40;99.90;;;;;;5034930;28;20033;-55
2022/11/25 03:26:20;;;;;;;20.67;4.90;;;8.40;99.90;;;;;;5034185;28;20039;-58
2022/11/25 03:28:45;;;;;;;17.40;4.80;;;8.30;99.90;;;;;;5031657;28;20032;-61
2022/11/25 03:31:11;;;;;;;17.50;4.82;;;8.30;99.90;;;;;;5038129;28;20049;-61
2022/11/25 03:33:37;;;;;;;19.38;4.65;;;8.30;99.90;;;;;;5033404;28;20519;-61
2022/11/25 03:36:03;;;;;;;20.10;4.68;;;8.30;99.90;;;;;;5036421;28;20033;-58
2022/11/25 03:38:28;;;;;;;15.90;4.00;;;8.30;99.90;;;;;;5033599;28;20037;-62
2022/11/25 03:40:54;;;;;;;23.23;4.78;;;8.30;99.90;;;;;;5035986;28;20155;-63
2022/11/25 03:43:20;;;;;;;16.23;4.18;;;8.40;99.90;;;;;;5040017;28;20036;-62
2022/11/25 03:45:49;;;;;;;19.05;4.70;;;8.40;99.90;;;;;;5035607;28;20044;-59
2022/11/25 03:48:15;;;;;;;15.57;4.13;;;8.40;99.90;;;;;;5036109;28;20037;-62
2022/11/25 03:50:41;;;;;;;18.02;5.00;;;8.40;99.90;;;;;;5033349;28;20079;-59
2022/11/25 03:53:07;;;;;;;17.08;5.43;;;8.40;99.90;;;;;;5045598;28;20045;-61
2022/11/25 03:55:33;;;;;;;16.55;6.15;;;8.40;99.90;;;;;;5037261;28;20037;-59
2022/11/25 03:57:59;;;;;;;15.00;4.45;;;8.40;99.90;;;;;;5037222;28;21277;-63
2022/11/25 04:00:25;;;;;;;20.50;4.95;;;8.40;99.90;;;;;;5034148;28;20147;-59
2022/11/25 04:02:50;;;;;;;26.00;5.47;;;8.40;99.90;;;;;;5031999;28;20033;-61
2022/11/25 04:05:16;;;;;;;12.50;4.88;;;8.40;99.90;;;;;;5035596;28;20476;-62
2022/11/25 04:07:42;;;;;;;16.33;4.72;;;8.40;99.90;;;;;;5033006;28;20041;-63
2022/11/25 04:10:08;;;;;;;13.50;4.20;;;8.40;99.90;;;;;;5040100;28;20033;-59
2022/11/25 04:12:46;;;;;;;18.30;5.10;;;8.40;99.90;;;;;;5018262;28;20248;-60
2022/11/25 04:15:13;;;;;;;14.35;6.25;;;8.40;99.90;;;;;;5031523;28;20403;-62
2022/11/25 04:17:39;;;;;;;11.07;4.65;;;8.40;99.90;;;;;;5029959;28;20053;-60
2022/11/25 04:20:05;;;;;;;14.65;4.80;;;8.50;99.90;;;;;;5039363;28;20048;-60
2022/11/25 04:22:31;;;;;;;18.67;5.63;;;8.50;99.90;;;;;;5037197;28;20049;-62
2022/11/25 04:24:56;;;;;;;15.82;5.95;;;8.50;99.90;;;;;;5036254;28;20098;-59
2022/11/25 04:27:22;;;;;;;18.25;6.05;;;8.50;99.90;;;;;;5037906;28;20060;-59
2022/11/25 04:29:48;;;;;;;14.50;5.57;;;8.50;99.90;;;;;;5037094;28;20037;-62
2022/11/25 04:32:14;;;;;;;22.15;6.30;;;8.50;99.90;;;;;;5042536;28;20403;-60
2022/11/25 04:34:40;;;;;;;16.75;6.53;;;8.50;99.90;;;;;;5036655;28;20045;-63
2022/11/25 04:37:05;;;;;;;17.92;6.53;;;8.50;99.90;;;;;;5039705;28;20075;-60
2022/11/25 04:39:31;;;;;;;19.35;5.78;;;8.50;99.90;;;;;;5041958;28;20029;-60
2022/11/25 04:44:41;;;;;;;;;;;8.50;99.90;;;;;;5034290;28;20045;-60
2022/11/25 04:47:06;;;;;;;14.93;5.78;;;8.50;99.90;;;;;;5042128;28;19916;-62
2022/11/25 04:49:32;;;;;;;15.60;5.97;;;8.50;99.90;;;;;;5026788;28;20523;-61
2022/11/25 04:51:58;;;;;;;17.10;6.35;;;8.50;99.90;;;;;;5038894;28;20033;-60
2022/11/25 04:54:23;;;;;;;14.70;5.90;;;8.50;99.90;;;;;;5024899;28;20071;-60
2022/11/25 04:56:49;;;;;;;19.75;6.05;;;8.50;99.90;;;;;;5043651;28;20114;-61
2022/11/25 05:01:59;;;;;;;24.58;7.05;;;8.50;99.90;;;;;;5039093;28;20408;-57
2022/11/25 05:04:25;;;;;;;20.00;5.88;;;8.50;99.90;;;;;;5040016;28;20037;-59
2022/11/25 05:06:50;;;;;;;19.40;6.90;;;8.50;99.90;;;;;;5031729;28;20033;-59
2022/11/25 05:09:16;;;;;;;26.42;6.70;;;8.50;99.90;;;;;;5015680;28;20103;-63
2022/11/25 05:11:42;;;;;;;16.08;5.90;;;8.50;99.90;;;;;;5038363;28;20056;-58
2022/11/25 05:14:08;;;;;;;23.10;6.32;;;8.50;99.90;;;;;;5039020;28;20377;-58
2022/11/25 05:16:34;;;;;;;21.45;6.75;;;8.50;99.90;;;;;;5034368;28;20150;-57
2022/11/25 05:18:59;;;;;;;19.02;6.03;;;8.50;99.90;;;;;;5039066;28;20040;-63
2022/11/25 05:21:25;;;;;;;32.47;7.95;;;8.50;99.90;;;;;;5036524;28;21288;-60
2022/11/25 05:23:52;;;;;;;18.38;6.72;;;8.50;99.90;;;;;;5029363;28;20124;-61
2022/11/25 05:26:18;;;;;;;22.05;7.43;;;8.50;99.90;;;;;;5033474;28;20091;-60
2022/11/25 05:28:44;;;;;;;25.40;7.13;;;8.50;99.90;;;;;;5030820;28;20208;-59
2022/11/25 05:31:10;;;;;;;18.55;6.32;;;8.50;99.90;;;;;;5037513;28;20041;-59
2022/11/25 05:33:35;;;;;;;22.83;7.03;;;8.50;99.90;;;;;;5034735;28;20044;-62
2022/11/25 05:36:02;;;;;;;20.30;6.15;;;8.50;99.90;;;;;;5039071;28;20032;-61
2022/11/25 05:38:29;;;;;;;22.58;6.22;;;8.50;99.90;;;;;;5039495;28;20041;-61
2022/11/25 05:41:02;;;;;;;21.10;6.10;;;8.50;99.90;;;;;;5037093;28;20117;-61
2022/11/25 05:43:27;;;;;;;23.73;6.83;;;8.50;99.90;;;;;;5021370;28;20037;-60
2022/11/25 05:45:53;;;;;;;23.30;6.20;;;8.50;99.90;;;;;;5034471;28;21160;-59
2022/11/25 05:48:19;;;;;;;18.52;6.47;;;8.50;99.90;;;;;;5036273;28;20532;-61
2022/11/25 05:50:44;;;;;;;17.05;6.07;;;8.50;99.90;;;;;;5038513;28;20410;-62
2022/11/25 05:53:10;;;;;;;18.10;6.20;;;8.50;99.90;;;;;;5035553;28;20446;-56
2022/11/25 05:55:36;;;;;;;20.42;5.90;;;8.60;99.90;;;;;;5034957;28;20231;-60
2022/11/25 05:58:03;;;;;;;19.23;5.75;;;8.60;99.90;;;;;;5028545;28;20474;-61
2022/11/25 06:00:29;;;;;;;17.70;5.53;;;8.60;99.90;;;;;;5034190;28;20372;-63
2022/11/25 06:02:55;;;;;;;15.60;5.13;;;8.60;99.90;;;;;;5039190;28;20162;-61
2022/11/25 06:05:21;;;;;;;21.48;6.00;;;8.60;99.90;;;;;;5036936;28;20418;-60
2022/11/25 06:07:46;;;;;;;16.92;5.32;;;8.60;99.90;;;;;;5038092;28;20045;-62
2022/11/25 06:10:12;;;;;;;20.05;5.97;;;8.60;99.90;;;;;;5031453;28;20119;-60
2022/11/25 06:12:38;;;;;;;18.10;5.60;;;8.60;99.90;;;;;;5033976;28;20044;-62
2022/11/25 06:15:04;;;;;;;16.25;5.82;;;8.60;99.90;;;;;;5027334;28;20033;-60
2022/11/25 06:17:30;;;;;;;24.00;7.47;;;8.70;99.90;;;;;;5037851;28;20041;-59
2022/11/25 06:19:56;;;;;;;19.52;5.90;;;8.70;99.90;;;;;;5032580;28;20404;-61
2022/11/25 06:22:22;;;;;;;17.10;6.32;;;8.70;99.90;;;;;;5033372;28;20037;-59
2022/11/25 06:24:47;;;;;;;15.93;5.72;;;8.70;99.90;;;;;;5036557;28;20029;-61
2022/11/25 06:27:13;;;;;;;17.58;6.55;;;8.70;99.90;;;;;;5039418;28;20120;-62
2022/11/25 06:29:41;;;;;;;19.67;5.65;;;8.70;99.90;;;;;;5037371;28;20033;-61
2022/11/25 06:32:07;;;;;;;19.30;6.55;;;8.80;99.90;;;;;;5043172;22;20045;-60
2022/11/25 06:34:35;;;;;;;22.58;7.38;;;8.70;99.90;;;;;;5027632;28;20080;-60
2022/11/25 06:37:01;;;;;;;19.77;6.90;;;8.70;99.90;;;;;;5033372;28;20052;-60
2022/11/25 06:39:26;;;;;;;16.98;6.05;;;8.70;99.90;;;;;;5034169;28;20088;-60
2022/11/25 06:41:52;;;;;;;23.33;6.18;;;8.70;99.90;;;;;;5030377;28;20055;-61
2022/11/25 06:44:18;;;;;;;22.95;6.40;;;8.70;99.90;;;;;;5032241;28;20441;-60
2022/11/25 06:46:43;;;;;;;18.85;6.25;;;8.70;99.90;;;;;;5033563;28;20144;-61
2022/11/25 06:49:09;;;;;;;18.08;6.90;;;8.60;99.90;;;;;;5034443;28;20071;-61
2022/11/25 06:51:35;;;;;;;18.80;6.32;;;8.60;99.90;;;;;;5033201;28;20303;-61
2022/11/25 06:54:00;;;;;;;18.08;6.35;;;8.60;99.90;;;;;;5034733;28;20078;-61
2022/11/25 06:56:27;;;;;;;23.25;6.55;;;8.50;99.90;;;;;;5033571;28;20059;-59
2022/11/25 06:58:54;;;;;;;16.02;5.95;;;8.50;99.90;;;;;;5012326;28;20047;-60
2022/11/25 07:01:24;;;;;;;17.25;6.85;;;8.50;99.90;;;;;;5025003;28;20124;-60
2022/11/25 07:03:54;;;;;;;18.58;7.28;;;8.50;99.90;;;;;;5017885;28;20045;-60
2022/11/25 07:06:20;;;;;;;18.70;6.25;;;8.40;99.90;;;;;;5016106;28;20049;-60
2022/11/25 07:08:47;;;;;;;20.98;7.13;;;8.40;99.90;;;;;;5029382;28;20492;-60
2022/11/25 07:11:17;;;;;;;22.90;6.57;;;8.50;99.90;;;;;;5034172;28;20036;-60
2022/11/25 07:13:44;;;;;;;21.27;6.95;;;8.40;99.90;;;;;;5032192;28;20511;-61
2022/11/25 07:16:10;;;;;;;20.33;6.80;;;8.30;99.90;;;;;;5013639;28;20037;-60
2022/11/25 07:18:38;;;;;;;16.73;6.97;;;8.20;99.90;;;;;;5032513;28;20076;-60
2022/11/25 07:21:12;;;;;;;18.38;6.80;;;8.30;99.90;;;;;;5034272;28;20044;-60
2022/11/25 07:23:39;;;;;;;16.92;6.20;;;8.20;99.90;;;;;;5037180;28;20472;-59
2022/11/25 07:26:08;;;;;;;23.33;7.53;;;8.20;99.90;;;;;;5035014;28;20049;-59
2022/11/25 07:28:34;;;;;;;14.82;5.85;;;8.20;99.90;;;;;;5029657;28;20049;-59
2022/11/25 07:31:18;;;;;;;15.23;6.05;;;8.20;99.90;;;;;;5023802;28;20080;-60
2022/11/25 07:33:44;;;;;;;15.30;5.70;;;8.20;99.90;;;;;;5011663;28;20090;-60
2022/11/25 07:36:12;;;;;;;16.77;6.60;;;8.20;99.90;;;;;;5031758;28;20041;-60
2022/11/25 07:38:39;;;;;;;15.27;6.10;;;8.10;99.90;;;;;;5033922;28;20487;-60
2022/11/25 07:41:24;;;;;;;19.17;7.18;;;8.10;99.90;;;;;;5035742;28;20033;-60
2022/11/25 07:43:55;;;;;;;19.35;7.68;;;8.10;99.90;;;;;;5029111;28;20051;-60
2022/11/25 07:46:24;;;;;;;20.35;6.65;;;8.10;99.90;;;;;;5026009;28;20051;-60
2022/11/25 07:48:53;;;;;;;15.60;6.47;;;8.10;99.90;;;;;;5025229;28;20040;-60
2022/11/25 07:51:20;;;;;;;15.93;6.28;;;8.10;99.90;;;;;;5036652;28;20045;-60
2022/11/25 07:53:47;;;;;;;18.05;5.90;;;8.10;99.90;;;;;;5031411;28;20676;-60
2022/11/25 07:56:14;;;;;;;12.57;6.07;;;8.10;99.90;;;;;;5030541;28;20247;-60
2022/11/25 07:58:41;;;;;;;20.25;7.00;;;8.10;99.90;;;;;;5036704;28;20041;-60
2022/11/25 08:01:09;;;;;;;15.75;6.45;;;8.10;99.90;;;;;;5026631;28;20036;-59
2022/11/25 08:03:36;;;;;;;18.25;6.25;;;8.10;99.90;;;;;;5022986;28;20033;-60
2022/11/25 08:06:04;;;;;;;16.52;5.97;;;8.10;99.90;;;;;;5035693;28;20048;-59
2022/11/25 08:08:29;;;;;;;20.58;6.68;;;8.10;99.90;;;;;;5036209;28;20046;-60
2022/11/25 08:10:55;;;;;;;18.52;5.93;;;8.10;99.90;;;;;;5025317;28;20051;-60
2022/11/25 08:13:21;;;;;;;18.05;5.72;;;8.10;99.90;;;;;;5025779;28;20072;-59
2022/11/25 08:15:47;;;;;;;18.30;6.32;;;8.10;99.90;;;;;;5014634;28;20120;-60
2022/11/25 08:18:13;;;;;;;11.63;5.70;;;8.10;99.90;;;;;;5015586;28;20044;-60
2022/11/25 08:20:38;;;;;;;15.68;6.00;;;8.10;99.90;;;;;;5029627;28;20128;-60
2022/11/25 08:23:04;;;;;;;16.48;5.90;;;8.10;99.90;;;;;;5037567;28;20495;-60
2022/11/25 08:25:32;;;;;;;16.38;6.35;;;8.10;99.90;;;;;;5038140;28;20374;-60
2022/11/25 08:27:59;;;;;;;14.98;6.18;;;8.10;99.90;;;;;;5041407;28;20040;-59
2022/11/25 08:30:26;;;;;;;18.55;6.35;;;8.10;99.90;;;;;;5036640;28;20044;-60
2022/11/25 08:32:52;;;;;;;13.93;6.18;;;8.10;99.90;;;;;;5026647;28;20044;-59
2022/11/25 08:35:18;;;;;;;13.35;5.22;;;8.10;99.90;;;;;;5032454;28;20049;-59
2022/11/25 08:37:45;;;;;;;14.45;5.70;;;8.10;99.90;;;;;;5025329;28;20450;-59
2022/11/25 08:40:11;;;;;;;17.45;5.32;;;8.10;99.90;;;;;;5033950;28;20467;-60
2022/11/25 08:42:37;;;;;;;12.07;5.60;;;8.10;99.90;;;;;;5027250;28;20045;-60
2022/11/25 08:45:05;;;;;;;13.20;6.07;;;8.20;99.90;;;;;;5034391;28;20681;-60
2022/11/25 08:47:31;;;;;;;14.98;5.68;;;8.20;99.90;;;;;;5029312;28;20071;-60
2022/11/25 08:49:56;;;;;;;13.13;5.82;;;8.20;99.90;;;;;;5032801;28;20052;-60
2022/11/25 08:52:22;;;;;;;13.77;5.72;;;8.30;99.90;;;;;;5033738;28;20132;-59
2022/11/25 08:54:48;;;;;;;12.20;5.38;;;8.30;99.90;;;;;;5025973;28;20103;-59
2022/11/25 08:57:15;;;;;;;14.27;5.60;;;8.30;99.90;;;;;;5036061;28;20041;-60
2022/11/25 08:59:41;;;;;;;11.95;5.05;;;8.40;99.90;;;;;;5040989;28;20037;-61
2022/11/25 09:02:08;;;;;;;15.88;5.55;;;8.40;99.90;;;;;;5029362;28;20571;-60
2022/11/25 09:04:34;;;;;;;14.73;5.10;;;8.40;99.90;;;;;;5022911;28;20044;-61
2022/11/25 09:07:02;;;;;;;12.98;5.47;;;8.50;99.90;;;;;;5042203;28;20080;-60
2022/11/25 09:09:30;;;;;;;16.58;5.50;;;8.50;99.90;;;;;;5042486;28;20060;-61
2022/11/25 09:11:56;;;;;;;12.57;5.40;;;8.50;99.90;;;;;;5010690;28;20040;-61
2022/11/25 09:14:22;;;;;;;10.70;4.97;;;8.50;99.90;;;;;;5037740;28;20096;-60
2022/11/25 09:16:48;;;;;;;11.38;4.82;;;8.60;99.90;;;;;;5043170;28;20037;-60
2022/11/25 09:19:14;;;;;;;8.50;4.43;;;8.60;99.90;;;;;;5034294;28;20041;-60
2022/11/25 09:21:41;;;;;;;11.57;5.18;;;8.70;99.90;;;;;;5044104;28;20466;-61
2022/11/25 09:24:08;;;;;;;13.18;4.53;;;8.70;99.90;;;;;;5047455;28;20059;-61
2022/11/25 09:26:35;;;;;;;11.90;5.38;;;8.80;99.90;;;;;;5043319;28;20056;-61
2022/11/25 09:29:01;;;;;;;8.95;4.60;;;8.90;99.90;;;;;;5041774;28;20099;-60
2022/11/25 09:31:27;;;;;;;13.98;4.82;;;8.90;99.90;;;;;;5034008;28;20033;-60
2022/11/25 09:33:53;;;;;;;11.68;4.55;;;8.90;99.90;;;;;;5042675;28;20063;-60
2022/11/25 09:36:19;;;;;;;10.52;4.82;;;8.90;99.90;;;;;;5043557;28;20178;-61
2022/11/25 09:38:46;;;;;;;8.80;4.57;;;9.00;99.90;;;;;;5043582;28;20110;-60
2022/11/25 09:47:45;;;;;;;10.48;5.10;;;9.30;99.90;;;;;;5037693;28;20041;-61
2022/11/25 09:50:28;;;;;;;10.82;4.90;;;9.40;99.90;;;;;;5040683;28;20052;-60
2022/11/25 09:53:13;;;;;;;9.80;4.93;;;9.40;99.90;;;;;;5038718;28;20077;-61
2022/11/25 09:55:44;;;;;;;11.07;4.57;;;9.30;99.90;;;;;;5041159;28;20431;-60
2022/11/25 09:58:48;;;;;;;12.10;5.18;;;9.30;99.90;;;;;;5038126;28;20446;-61
2022/11/25 10:01:18;;;;;;;9.30;4.50;;;9.20;99.90;;;;;;5018667;28;20049;-61
2022/11/25 10:03:55;;;;;;;10.48;4.43;;;9.20;99.90;;;;;;5033801;28;20061;-61
2022/11/25 10:06:25;;;;;;;10.15;4.13;;;9.20;99.90;;;;;;5040445;28;20487;-61
2022/11/25 10:09:00;;;;;;;10.27;3.78;;;9.20;99.90;;;;;;5034185;28;20041;-60
2022/11/25 10:11:45;;;;;;;10.93;4.05;;;9.20;99.90;;;;;;5032083;28;20388;-61
2022/11/25 10:14:16;;;;;;;16.65;4.70;;;9.30;99.90;;;;;;5021451;28;20132;-61
2022/11/25 10:17:04;;;;;;;15.18;3.70;;;9.30;99.90;;;;;;5020097;28;20044;-61
2022/11/25 10:19:40;;;;;;;9.70;3.90;;;9.40;99.90;;;;;;5016196;28;20071;-61
2022/11/25 10:22:20;;;;;;;13.95;4.40;;;9.50;99.90;;;;;;5014398;28;20419;-61
2022/11/25 10:24:48;;;;;;;9.48;3.50;;;9.60;99.90;;;;;;5027119;28;20419;-61
2022/11/25 10:27:34;;;;;;;9.45;3.45;;;9.80;99.90;;;;;;5034358;28;20410;-60
2022/11/25 10:30:13;;;;;;;12.50;3.60;;;10.00;99.90;;;;;;5008207;28;20057;-60
2022/11/25 10:32:58;;;;;;;11.23;3.42;;;10.10;99.90;;;;;;5029481;28;20073;-61
2022/11/25 10:35:32;;;;;;;11.57;3.05;;;10.20;99.90;;;;;;5033881;28;20740;-61
2022/11/25 10:38:02;;;;;;;10.98;3.42;;;10.20;99.90;;;;;;5037338;28;20107;-61
2022/11/25 10:40:28;;;;;;;10.60;3.10;;;10.10;99.90;;;;;;5029830;28;20048;-61
2022/11/25 10:42:53;;;;;;;9.70;3.10;;;10.10;99.90;;;;;;5036486;28;20040;-61
2022/11/25 10:45:27;;;;;;;14.95;3.30;;;10.10;99.90;;;;;;5032517;28;20163;-60
2022/11/25 10:48:03;;;;;;;7.82;3.30;;;10.00;99.90;;;;;;5027002;28;20494;-61
2022/11/25 10:50:35;;;;;;;13.18;3.03;;;10.00;99.90;;;;;;5047815;28;20036;-61
2022/11/25 10:53:07;;;;;;;11.25;3.67;;;10.00;99.90;;;;;;5026670;28;20234;-60
2022/11/25 10:55:33;;;;;;;9.88;3.50;;;10.10;99.90;;;;;;5029115;28;20546;-61
2022/11/25 10:58:38;;;;;;;14.32;3.42;;;10.10;99.90;;;;;;5019642;28;20424;-61
2022/11/25 11:01:21;;;;;;;11.93;3.28;;;10.10;99.90;;;;;;5031534;28;20051;-60
2022/11/25 11:04:02;;;;;;;11.55;3.13;;;10.00;99.90;;;;;;5021003;28;20282;-60
2022/11/25 11:06:39;;;;;;;9.07;2.83;;;10.10;99.90;;;;;;5015783;28;20037;-60
2022/11/25 11:09:25;;;;;;;11.20;3.25;;;10.10;99.90;;;;;;5029459;28;20127;-61
2022/11/25 11:11:51;;;;;;;15.57;3.90;;;10.10;99.90;;;;;;5027055;28;20052;-61
2022/11/25 11:14:19;;;;;;;12.95;3.85;;;10.10;99.90;;;;;;5013891;28;20539;-60
2022/11/25 11:16:53;;;;;;;13.18;2.85;;;10.10;99.90;;;;;;5025764;28;20068;-61
2022/11/25 11:19:26;;;;;;;11.98;3.50;;;10.30;99.90;;;;;;5013775;28;20048;-60
2022/11/25 11:21:53;;;;;;;9.52;2.83;;;10.40;99.90;;;;;;5035884;28;20103;-61
2022/11/25 11:24:34;;;;;;;15.45;3.72;;;10.50;99.90;;;;;;5031147;28;20033;-61
2022/11/25 11:27:08;;;;;;;18.23;4.20;;;10.70;99.90;;;;;;5044791;28;20463;-61
2022/11/25 11:29:34;;;;;;;15.48;3.13;;;10.90;99.90;;;;;;5040363;28;20044;-60
2022/11/25 11:32:03;;;;;;;14.68;3.78;;;11.00;99.90;;;;;;5027868;28;20037;-60
2022/11/25 11:34:58;;;;;;;15.68;3.33;;;11.10;99.90;;;;;;5044522;28;20033;-61
2022/11/25 11:37:33;;;;;;;16.42;2.65;;;11.10;99.90;;;;;;5035544;28;20423;-61
2022/11/25 11:40:32;;;;;;;12.23;2.85;;;11.20;99.90;;;;;;5019844;28;20037;-60
2022/11/25 11:43:23;;;;;;;10.80;2.72;;;11.20;99.90;;;;;;5012707;28;20039;-61
2022/11/25 11:46:27;;;;;;;13.90;2.60;;;11.40;99.90;;;;;;5026733;28;20531;-61
2022/11/25 11:49:11;;;;;;;19.45;3.75;;;11.50;99.90;;;;;;5032092;28;20143;-61
2022/11/25 11:51:46;;;;;;;13.10;2.88;;;11.50;99.90;;;;;;5040470;28;20559;-61
2022/11/25 11:54:43;;;;;;;15.80;3.15;;;11.40;99.90;;;;;;5032386;28;20041;-61
2022/11/25 11:57:31;;;;;;;13.77;3.40;;;11.30;99.90;;;;;;5012127;28;20056;-61
2022/11/25 12:00:05;;;;;;;14.32;3.00;;;11.40;99.90;;;;;;5028685;28;20395;-61
2022/11/25 12:02:35;;;;;;;11.27;2.85;;;11.50;99.90;;;;;;5017743;28;20151;-60
2022/11/25 12:05:14;;;;;;;14.05;2.88;;;11.50;99.90;;;;;;5032868;28;20299;-60
2022/11/25 12:08:02;;;;;;;16.58;3.95;;;11.60;99.90;;;;;;5034883;28;20045;-60
2022/11/25 12:10:33;;;;;;;14.93;2.72;;;11.60;99.90;;;;;;5033003;28;20069;-61
2022/11/25 12:13:14;;;;;;;14.68;2.70;;;11.60;99.90;;;;;;5025305;28;20263;-61
2022/11/25 12:15:49;;;;;;;21.00;3.67;;;11.70;99.90;;;;;;5018004;28;20080;-61
2022/11/25 12:18:54;;;;;;;12.38;2.78;;;11.70;99.90;;;;;;5032925;28;20037;-61
2022/11/25 12:21:52;;;;;;;14.40;3.10;;;11.80;99.90;;;;;;4972009;28;20378;-60
2022/11/25 12:24:39;;;;;;;15.73;2.92;;;12.00;99.90;;;;;;5042327;28;20278;-61
2022/11/25 12:27:16;;;;;;;18.15;3.53;;;12.00;99.90;;;;;;5036181;28;20036;-60
2022/11/25 12:29:48;;;;;;;19.30;3.47;;;12.00;99.90;;;;;;5021839;28;20052;-61
2022/11/25 12:32:20;;;;;;;15.15;3.10;;;11.90;99.90;;;;;;5039853;22;20045;-60
2022/11/25 12:35:15;;;;;;;13.15;2.90;;;11.90;99.90;;;;;;5040849;28;20041;-60
2022/11/25 12:37:55;;;;;;;13.32;3.75;;;11.80;99.90;;;;;;5038778;28;20155;-61
2022/11/25 12:40:28;;;;;;;16.05;2.60;;;11.70;99.90;;;;;;5036988;28;20160;-61
2022/11/25 12:43:16;;;;;;;11.35;2.78;;;11.70;99.90;;;;;;5040850;28;20533;-61
2022/11/25 12:45:46;;;;;;;13.07;3.17;;;11.70;99.90;;;;;;5026215;28;20469;-61
2022/11/25 12:48:11;;;;;;;13.55;2.70;;;11.60;99.90;;;;;;5024172;28;20442;-62
2022/11/25 12:50:43;;;;;;;11.60;2.67;;;11.60;99.90;;;;;;5037556;28;20091;-61
2022/11/25 12:53:14;;;;;;;12.18;2.72;;;11.60;99.90;;;;;;5041024;28;20390;-62
2022/11/25 12:55:40;;;;;;;11.07;2.63;;;11.60;99.90;;;;;;5036778;28;20049;-61
2022/11/25 12:58:29;;;;;;;10.90;3.22;;;11.70;99.90;;;;;;5032926;28;20076;-60
2022/11/25 13:01:16;;;;;;;13.98;2.63;;;11.60;99.90;;;;;;5025620;28;20053;-60
2022/11/25 13:04:22;;;;;;;13.52;3.65;;;11.50;99.90;;;;;;5030319;28;20049;-55
2022/11/25 13:06:54;;;;;;;18.27;3.17;;;11.50;99.90;;;;;;4981932;28;20539;-59
2022/11/25 13:09:40;;;;;;;13.88;2.97;;;11.40;99.90;;;;;;5025168;28;20120;-59
2022/11/25 13:12:26;;;;;;;16.00;3.97;;;11.30;99.90;;;;;;5034131;28;20053;-61
2022/11/25 13:15:14;;;;;;;14.30;3.45;;;11.30;99.90;;;;;;5041560;28;20655;-57